Time;durP1;ratioP1;P1;durP2;ratioP2;P2;SDS_P1;SDS_P2;PMS_P1;PMS_P2;Temp;Humidity;BMP_temperature;BMP_pressure;BME280_temperature;BME280_humidity;BME280_pressure;Samples;Min_cycle;Max_cycle;Signal;HPM_P1;HPM_P2
2021/01/20 00:01:37;;;;;;;;;;;28.90;35.20;;;;;;5072932;28;19962;-60
2021/01/20 00:04:02;;;;;;;;;;;28.80;35.10;;;;;;5072510;28;19908;-63
2021/01/20 00:06:28;;;;;;;;;;;28.80;35.30;;;;;;5072877;28;19908;-63
2021/01/20 00:08:53;;;;;;;;;;;28.80;35.20;;;;;;5073016;28;19928;-61
2021/01/20 00:11:19;;;;;;;;;;;28.80;35.20;;;;;;5073440;28;19939;-64
2021/01/20 00:13:45;;;;;;;;;;;28.80;35.30;;;;;;5073159;28;19913;-60
2021/01/20 00:16:10;;;;;;;;;;;28.80;35.00;;;;;;5073104;28;20270;-59
2021/01/20 00:18:36;;;;;;;;;;;28.80;35.10;;;;;;5073063;28;19915;-60
2021/01/20 00:21:01;;;;;;;;;;;28.80;35.10;;;;;;5072639;28;19982;-61
2021/01/20 00:23:27;;;;;;;;;;;28.80;35.30;;;;;;5072826;28;19916;-60
2021/01/20 00:25:52;;;;;;;;;;;28.80;35.30;;;;;;5074310;28;19916;-61
2021/01/20 00:28:18;;;;;;;;;;;28.80;34.90;;;;;;5092630;28;19908;-60
2021/01/20 00:30:43;;;;;;;;;;;28.80;34.90;;;;;;5092902;28;20004;-59
2021/01/20 00:33:08;;;;;;;;;;;28.80;34.80;;;;;;5092820;28;20372;-58
2021/01/20 00:35:34;;;;;;;;;;;28.70;35.30;;;;;;5092090;28;19973;-60
2021/01/20 00:37:59;;;;;;;;;;;28.60;35.70;;;;;;5093140;28;20273;-62
2021/01/20 00:40:25;;;;;;;;;;;28.60;35.40;;;;;;5093056;28;19969;-60
2021/01/20 00:42:50;;;;;;;;;;;28.60;35.30;;;;;;5092733;28;19912;-62
2021/01/20 00:45:16;;;;;;;;;;;28.70;35.20;;;;;;5092841;28;20015;-56
2021/01/20 00:47:41;;;;;;;;;;;28.70;35.50;;;;;;5092814;28;19917;-60
2021/01/20 00:50:07;;;;;;;;;;;28.80;34.90;;;;;;5083460;28;20399;-60
2021/01/20 00:52:32;;;;;;;;;;;28.80;35.30;;;;;;5072529;28;19909;-60
2021/01/20 00:54:58;;;;;;;;;;;28.80;34.80;;;;;;5072816;28;19912;-60
2021/01/20 00:57:23;;;;;;;;;;;28.80;34.20;;;;;;5072434;28;19914;-62
2021/01/20 00:59:49;;;;;;;;;;;28.80;34.20;;;;;;5072647;28;20021;-58
2021/01/20 01:02:14;;;;;;;;;;;28.80;34.40;;;;;;5072432;28;19913;-60
2021/01/20 01:04:40;;;;;;;;;;;28.80;34.50;;;;;;5075696;28;19923;-60
2021/01/20 01:07:05;;;;;;;;;;;28.80;34.90;;;;;;5072674;28;20359;-59
2021/01/20 01:09:31;;;;;;;;;;;28.80;34.60;;;;;;5072176;28;20392;-60
2021/01/20 01:11:56;;;;;;;;;;;28.80;34.30;;;;;;5072237;28;19913;-63
2021/01/20 01:14:22;;;;;;;;;;;28.80;34.10;;;;;;5072359;28;19908;-60
2021/01/20 01:16:47;;;;;;;;;;;28.80;34.20;;;;;;5075489;28;20273;-65
2021/01/20 01:19:13;;;;;;;;;;;28.80;34.20;;;;;;5076522;28;19917;-61
2021/01/20 01:21:38;;;;;;;;;;;28.80;34.30;;;;;;5076263;28;20358;-60
2021/01/20 01:24:04;;;;;;;;;;;28.80;33.90;;;;;;5075888;28;19948;-61
2021/01/20 01:26:29;;;;;;;;;;;28.70;34.50;;;;;;5075709;28;19954;-60
2021/01/20 01:28:55;;;;;;;;;;;28.70;34.40;;;;;;5094357;28;19924;-60
2021/01/20 01:31:20;;;;;;;;;;;28.70;34.10;;;;;;5096120;28;20291;-59
2021/01/20 01:33:46;;;;;;;;;;;28.70;34.00;;;;;;5096253;28;20024;-57
2021/01/20 01:36:11;;;;;;;;;;;28.70;33.80;;;;;;5077691;28;19918;-58
2021/01/20 01:38:37;;;;;;;;;;;28.70;34.50;;;;;;5075577;28;19908;-56
2021/01/20 01:41:02;;;;;;;;;;;28.70;34.60;;;;;;5075784;28;19909;-53
2021/01/20 01:43:28;;;;;;;;;;;28.60;34.70;;;;;;5075713;28;19912;-55
2021/01/20 01:45:53;;;;;;;;;;;28.60;34.80;;;;;;5077574;28;20382;-52
2021/01/20 01:48:19;;;;;;;;;;;28.50;35.40;;;;;;5095284;28;20277;-58
2021/01/20 01:50:47;;;;;;;;;;;28.50;35.10;;;;;;5078112;28;19924;-60
2021/01/20 01:53:13;;;;;;;;;;;28.50;35.00;;;;;;5075545;28;19908;-59
2021/01/20 01:55:38;;;;;;;;;;;28.50;34.60;;;;;;5075424;28;19915;-57
2021/01/20 01:58:04;;;;;;;;;;;28.40;34.70;;;;;;5057747;28;19928;-59
2021/01/20 02:00:29;;;;;;;;;;;28.40;34.50;;;;;;5075177;28;19999;-60
2021/01/20 02:02:55;;;;;;;;;;;28.40;34.50;;;;;;5075486;28;19909;-60
2021/01/20 02:05:21;;;;;;;;;;;28.40;33.90;;;;;;5093938;28;20286;-60
2021/01/20 02:07:46;;;;;;;;;;;28.40;33.70;;;;;;5095577;28;19916;-57
2021/01/20 02:10:12;;;;;;;;;;;28.30;33.50;;;;;;5077314;28;20377;-60
2021/01/20 02:12:37;;;;;;;;;;;28.30;33.70;;;;;;5086269;28;20388;-60
2021/01/20 02:15:03;;;;;;;;;;;28.30;34.10;;;;;;5075127;28;20366;-60
2021/01/20 02:17:28;;;;;;;;;;;28.30;33.70;;;;;;5074877;28;20036;-59
2021/01/20 02:19:54;;;;;;;;;;;28.30;33.40;;;;;;5075180;28;19921;-60
2021/01/20 02:22:29;;;;;;;;;;;28.20;33.60;;;;;;5075225;28;19908;-58
2021/01/20 02:25:02;;;;;;;;;;;28.30;33.50;;;;;;5056835;28;20389;-60
2021/01/20 02:27:28;;;;;;;;;;;28.30;33.40;;;;;;5065495;28;20365;-60
2021/01/20 02:30:14;;;;;;;;;;;28.20;33.40;;;;;;5076679;28;19920;-57
2021/01/20 02:32:40;;;;;;;;;;;28.20;33.30;;;;;;5094051;28;19908;-60
2021/01/20 02:35:05;;;;;;;;;;;28.20;33.30;;;;;;5077168;28;20334;-54
2021/01/20 02:37:32;;;;;;;;;;;28.10;33.50;;;;;;5076694;28;20289;-60
2021/01/20 02:39:57;;;;;;;;;;;28.10;33.30;;;;;;5094985;28;19912;-59
2021/01/20 02:42:23;;;;;;;;;;;28.10;33.60;;;;;;5073426;28;19919;-59
2021/01/20 02:44:48;;;;;;;;;;;28.10;33.30;;;;;;5094299;28;19919;-53
2021/01/20 02:47:14;;;;;;;;;;;28.20;33.40;;;;;;5094928;28;19912;-59
2021/01/20 02:49:39;;;;;;;;;;;28.10;33.70;;;;;;5094577;28;19938;-60
2021/01/20 02:52:12;;;;;;;;;;;28.10;33.70;;;;;;5094427;28;19960;-56
2021/01/20 02:54:38;;;;;;;;;;;28.10;33.40;;;;;;5092886;28;19920;-53
2021/01/20 02:57:03;;;;;;;;;;;28.10;33.60;;;;;;5076497;28;19909;-53
2021/01/20 02:59:29;;;;;;;;;;;28.10;33.60;;;;;;5076223;28;19908;-59
2021/01/20 03:01:55;;;;;;;;;;;28.10;33.30;;;;;;5094574;28;19919;-55
2021/01/20 03:04:20;;;;;;;;;;;28.10;33.50;;;;;;5076462;28;20020;-60
2021/01/20 03:06:46;;;;;;;;;;;28.10;33.70;;;;;;5076344;28;20379;-60
2021/01/20 03:09:15;;;;;;;;;;;28.10;33.30;;;;;;5092646;28;20362;-60
2021/01/20 03:11:45;;;;;;;;;;;28.10;33.70;;;;;;5073921;28;19908;-60
2021/01/20 03:14:10;;;;;;;;;;;28.10;33.50;;;;;;5055934;28;19913;-60
2021/01/20 03:16:35;;;;;;;;;;;28.10;33.50;;;;;;5056048;28;19908;-60
2021/01/20 03:19:01;;;;;;;;;;;28.00;33.30;;;;;;5073974;28;19966;-60
2021/01/20 03:21:26;;;;;;;;;;;28.00;33.50;;;;;;5073947;28;19962;-59
2021/01/20 03:23:52;;;;;;;;;;;28.00;33.20;;;;;;5073826;28;19915;-60
2021/01/20 03:26:17;;;;;;;;;;;28.00;33.40;;;;;;5094117;28;19928;-60
2021/01/20 03:28:43;;;;;;;;;;;28.00;33.50;;;;;;5093660;28;19963;-59
2021/01/20 03:31:08;;;;;;;;;;;28.00;33.30;;;;;;5094005;28;19912;-59
2021/01/20 03:33:34;;;;;;;;;;;28.00;33.50;;;;;;5081747;28;19920;-60
2021/01/20 03:35:59;;;;;;;;;;;28.00;33.40;;;;;;5088483;28;19912;-60
2021/01/20 03:38:25;;;;;;;;;;;28.00;33.10;;;;;;5093458;28;19977;-60
2021/01/20 03:40:50;;;;;;;;;;;28.00;33.30;;;;;;5093733;28;20011;-60
2021/01/20 03:43:16;;;;;;;;;;;28.00;33.20;;;;;;5093831;28;20328;-60
2021/01/20 03:45:41;;;;;;;;;;;28.00;33.50;;;;;;5093503;28;19950;-60
2021/01/20 03:48:07;;;;;;;;;;;28.10;33.40;;;;;;5093760;28;19915;-60
2021/01/20 03:50:32;;;;;;;;;;;28.00;33.10;;;;;;5080034;28;20397;-60
2021/01/20 03:52:58;;;;;;;;;;;28.00;33.00;;;;;;5078103;28;20003;-57
2021/01/20 03:55:23;;;;;;;;;;;28.00;33.20;;;;;;5093615;28;19912;-60
2021/01/20 03:57:50;;;;;;;;;;;28.00;33.20;;;;;;5093625;28;20373;-60
2021/01/20 04:00:16;;;;;;;;;;;28.00;33.00;;;;;;5093549;28;19940;-60
2021/01/20 04:02:41;;;;;;;;;;;28.00;33.00;;;;;;5093010;28;19943;-59
2021/01/20 04:05:07;;;;;;;;;;;28.00;33.20;;;;;;5093530;28;19953;-59
2021/01/20 04:07:33;;;;;;;;;;;28.00;33.10;;;;;;5089413;28;20003;-59
2021/01/20 04:09:58;;;;;;;;;;;28.00;32.80;;;;;;5073072;28;20062;-59
2021/01/20 04:12:24;;;;;;;;;;;28.00;33.10;;;;;;5073306;28;20370;-60
2021/01/20 04:14:50;;;;;;;;;;;28.00;32.90;;;;;;5072852;28;19912;-60
2021/01/20 04:17:15;;;;;;;;;;;28.00;33.00;;;;;;5073140;28;19908;-60
2021/01/20 04:19:41;;;;;;;;;;;28.00;32.70;;;;;;5072931;28;20243;-60
2021/01/20 04:22:06;;;;;;;;;;;27.90;32.90;;;;;;5074566;28;19909;-60
2021/01/20 04:24:32;;;;;;;;;;;27.90;33.00;;;;;;5093229;28;19908;-60
2021/01/20 04:26:57;;;;;;;;;;;27.90;32.80;;;;;;5092920;28;19951;-60
2021/01/20 04:29:23;;;;;;;;;;;27.90;32.80;;;;;;5092719;28;19942;-60
2021/01/20 04:31:48;;;;;;;;;;;27.90;32.50;;;;;;5081526;28;19912;-60
2021/01/20 04:34:14;;;;;;;;;;;27.90;32.70;;;;;;5093167;28;19920;-60
2021/01/20 04:36:39;;;;;;;;;;;27.90;32.70;;;;;;5092870;28;19918;-60
2021/01/20 04:39:05;;;;;;;;;;;27.90;32.80;;;;;;5092877;28;20387;-60
2021/01/20 04:41:32;;;;;;;;;;;27.90;32.70;;;;;;5092997;28;19908;-59
2021/01/20 04:43:57;;;;;;;;;;;27.90;32.80;;;;;;5093160;28;19916;-60
2021/01/20 04:46:23;;;;;;;;;;;27.80;32.90;;;;;;5091224;28;19908;-59
2021/01/20 04:48:49;;;;;;;;;;;27.80;32.60;;;;;;5054767;28;19927;-61
2021/01/20 04:51:14;;;;;;;;;;;27.90;32.90;;;;;;5075099;28;19946;-58
2021/01/20 04:53:40;;;;;;;;;;;27.90;32.60;;;;;;5076542;28;20362;-60
2021/01/20 04:56:06;;;;;;;;;;;27.90;32.70;;;;;;5058515;28;19908;-60
2021/01/20 04:58:32;;;;;;;;;;;27.90;33.40;;;;;;5076645;28;19916;-59
2021/01/20 05:00:58;;;;;;;;;;;27.90;33.00;;;;;;5076553;28;20271;-60
2021/01/20 05:03:23;;;;;;;;;;;27.90;32.50;;;;;;5075631;28;20263;-59
2021/01/20 05:05:49;;;;;;;;;;;27.90;32.70;;;;;;5076940;28;19918;-59
2021/01/20 05:08:14;;;;;;;;;;;27.90;32.60;;;;;;5078642;28;19938;-60
2021/01/20 05:10:40;;;;;;;;;;;27.90;32.70;;;;;;5096362;28;19961;-60
2021/01/20 05:13:06;;;;;;;;;;;27.90;32.50;;;;;;5078187;28;19919;-59
2021/01/20 05:15:32;;;;;;;;;;;27.90;32.50;;;;;;5078217;28;19915;-60
2021/01/20 05:18:01;;;;;;;;;;;27.90;32.80;;;;;;5096411;28;19911;-60
2021/01/20 05:20:27;;;;;;;;;;;27.90;32.60;;;;;;5077705;28;19913;-59
2021/01/20 05:23:00;;;;;;;;;;;27.90;32.70;;;;;;5075921;28;19940;-60
2021/01/20 05:25:26;;;;;;;;;;;27.80;32.70;;;;;;5076190;28;19913;-58
2021/01/20 05:27:51;;;;;;;;;;;27.80;32.60;;;;;;5076132;28;20280;-60
2021/01/20 05:30:17;;;;;;;;;;;27.80;32.60;;;;;;5075584;28;19921;-59
2021/01/20 05:32:42;;;;;;;;;;;27.80;32.50;;;;;;5075988;28;19909;-60
2021/01/20 05:35:09;;;;;;;;;;;27.80;32.60;;;;;;5093558;28;20326;-59
2021/01/20 05:37:44;;;;;;;;;;;27.80;32.80;;;;;;5096247;28;19912;-60
2021/01/20 05:40:10;;;;;;;;;;;27.80;32.70;;;;;;5096138;28;20007;-59
2021/01/20 05:42:46;;;;;;;;;;;27.80;32.50;;;;;;5085384;28;19920;-60
2021/01/20 05:45:11;;;;;;;;;;;27.80;32.70;;;;;;5075910;28;19922;-59
2021/01/20 05:47:37;;;;;;;;;;;27.90;32.70;;;;;;5075566;28;20003;-60
2021/01/20 05:50:06;;;;;;;;;;;27.80;32.40;;;;;;5075605;28;19938;-60
2021/01/20 05:52:32;;;;;;;;;;;27.90;32.40;;;;;;5075541;28;19930;-59
2021/01/20 05:54:57;;;;;;;;;;;27.80;33.20;;;;;;5075687;28;20362;-59
2021/01/20 05:57:23;;;;;;;;;;;27.80;32.50;;;;;;5085651;28;19912;-60
2021/01/20 05:59:49;;;;;;;;;;;27.80;32.40;;;;;;5081339;28;20281;-60
2021/01/20 06:02:14;;;;;;;;;;;27.80;32.60;;;;;;5092673;28;19916;-60
2021/01/20 06:04:40;;;;;;;;;;;27.80;32.50;;;;;;5095576;28;19908;-59
2021/01/20 06:07:09;;;;;;;;;;;27.80;32.60;;;;;;5095637;28;19920;-58
2021/01/20 06:09:35;;;;;;;;;;;27.90;32.60;;;;;;5095146;28;19927;-59
2021/01/20 06:12:04;;;;;;;;;;;27.90;32.50;;;;;;5095608;28;19912;-60
2021/01/20 06:14:30;;;;;;;;;;;27.90;32.50;;;;;;5095308;28;19915;-59
2021/01/20 06:17:02;;;;;;;;;;;27.80;32.60;;;;;;5075450;28;19924;-59
2021/01/20 06:19:28;;;;;;;;;;;27.80;32.30;;;;;;5091768;28;19916;-57
2021/01/20 06:21:54;;;;;;;;;;;27.80;32.40;;;;;;5075095;28;20243;-59
2021/01/20 06:24:24;;;;;;;;;;;27.80;32.40;;;;;;5057021;28;19909;-58
2021/01/20 06:26:54;;;;;;;;;;;27.80;32.40;;;;;;5056976;28;19912;-59
2021/01/20 06:29:20;;;;;;;;;;;27.80;32.40;;;;;;5074568;28;20301;-59
2021/01/20 06:31:46;;;;;;;;;;;27.80;32.40;;;;;;5068481;28;19912;-59
2021/01/20 06:34:11;;;;;;;;;;;27.80;32.60;;;;;;5075704;28;20354;-60
2021/01/20 06:36:37;;;;;;;;;;;27.80;32.60;;;;;;5080406;28;19912;-60
2021/01/20 06:39:22;;;;;;;;;;;27.80;32.40;;;;;;5094725;28;19908;-60
2021/01/20 06:41:48;;;;;;;;;;;27.80;32.30;;;;;;5094545;28;20294;-60
2021/01/20 06:44:16;;;;;;;;;;;27.80;32.50;;;;;;5094870;28;19908;-58
2021/01/20 06:46:57;;;;;;;;;;;27.80;32.60;;;;;;5094534;28;20035;-60
2021/01/20 06:49:25;;;;;;;;;;;27.80;32.50;;;;;;5094442;28;20442;-59
2021/01/20 06:52:06;;;;;;;;;;;27.70;32.20;;;;;;5094836;28;19908;-60
2021/01/20 06:54:38;;;;;;;;;;;27.80;32.30;;;;;;5075238;28;19952;-60
2021/01/20 06:57:25;;;;;;;;;;;27.70;32.30;;;;;;5074246;28;20392;-60
2021/01/20 07:00:05;;;;;;;;;;;27.70;32.50;;;;;;5074145;28;19908;-60
2021/01/20 07:02:31;;;;;;;;;;;27.70;32.50;;;;;;5074010;28;19909;-60
2021/01/20 07:04:56;;;;;;;;;;;27.70;32.40;;;;;;5056223;28;19915;-59
2021/01/20 07:07:40;;;;;;;;;;;27.70;32.40;;;;;;5078184;28;19920;-59
2021/01/20 07:10:06;;;;;;;;;;;27.70;32.30;;;;;;5094242;28;19916;-59
2021/01/20 07:12:33;;;;;;;;;;;27.80;32.30;;;;;;5093558;28;19977;-59
2021/01/20 07:14:58;;;;;;;;;;;27.80;32.50;;;;;;5075617;28;20332;-60
2021/01/20 07:17:23;;;;;;;;;;;27.80;32.40;;;;;;5075842;28;19953;-60
2021/01/20 07:19:49;;;;;;;;;;;27.80;32.30;;;;;;5094231;28;19966;-60
2021/01/20 07:22:15;;;;;;;;;;;27.80;32.30;;;;;;5088614;28;19958;-60
2021/01/20 07:24:40;;;;;;;;;;;27.80;32.20;;;;;;5073722;28;19913;-60
2021/01/20 07:27:06;;;;;;;;;;;27.80;32.30;;;;;;5073869;28;19962;-60
2021/01/20 07:29:32;;;;;;;;;;;27.80;32.20;;;;;;5073420;28;19970;-58
2021/01/20 07:31:58;;;;;;;;;;;27.80;32.20;;;;;;5085949;28;19928;-60
2021/01/20 07:34:33;;;;;;;;;;;27.80;32.00;;;;;;5073692;28;19909;-60
2021/01/20 07:37:05;;;;;;;;;;;27.80;32.30;;;;;;5073381;28;20042;-60
2021/01/20 07:39:31;;;;;;;;;;;27.80;32.30;;;;;;5073338;28;19915;-60
2021/01/20 07:41:56;;;;;;;;;;;27.80;32.40;;;;;;5073397;28;19908;-60
2021/01/20 07:44:22;;;;;;;;;;;27.80;32.20;;;;;;5073348;28;20411;-60
2021/01/20 07:47:00;;;;;;;;;;;27.80;32.30;;;;;;5077003;28;19916;-60
2021/01/20 07:49:25;;;;;;;;;;;27.80;32.30;;;;;;5093674;28;19961;-60
2021/01/20 07:52:09;;;;;;;;;;;27.70;32.10;;;;;;5091827;28;19912;-60
2021/01/20 07:54:38;;;;;;;;;;;27.70;32.10;;;;;;5093384;28;19912;-60
2021/01/20 07:57:05;;;;;;;;;;;27.70;32.30;;;;;;5093657;28;19912;-59
2021/01/20 07:59:32;;;;;;;;;;;27.70;32.40;;;;;;5093480;28;19912;-61
2021/01/20 08:02:15;;;;;;;;;;;27.70;32.20;;;;;;5092712;28;19973;-56
2021/01/20 08:04:41;;;;;;;;;;;27.60;30.60;;;;;;5091668;28;19912;-64
2021/01/20 08:07:06;;;;;;;;;;;27.50;30.40;;;;;;5089700;28;19908;-65
2021/01/20 08:09:38;;;;;;;;;;;27.60;30.40;;;;;;5093362;28;19943;-66
2021/01/20 08:12:04;;;;;;;;;;;27.80;31.00;;;;;;5093407;28;19912;-64
2021/01/20 08:14:30;;;;;;;;;;;27.80;32.00;;;;;;5093143;28;19912;-65
2021/01/20 08:16:55;;;;;;;;;;;27.80;30.90;;;;;;5093118;28;19908;-67
2021/01/20 08:19:21;;;;;;;;;;;27.90;31.10;;;;;;5093088;28;19909;-64
2021/01/20 08:21:46;;;;;;;;;;;28.00;31.40;;;;;;5092746;28;20353;-65
2021/01/20 08:24:12;;;;;;;;;;;28.00;31.10;;;;;;5074995;28;19912;-65
2021/01/20 08:26:39;;;;;;;;;;;28.10;31.40;;;;;;5074746;28;19908;-65
2021/01/20 08:29:08;;;;;;;;;;;28.10;31.70;;;;;;5074943;28;19924;-66
2021/01/20 08:31:34;;;;;;;;;;;28.10;31.60;;;;;;5093209;28;20044;-66
2021/01/20 08:34:12;;;;;;;;;;;28.10;31.50;;;;;;5092981;28;20361;-65
2021/01/20 08:36:38;;;;;;;;;;;28.10;31.80;;;;;;5089727;28;19974;-64
2021/01/20 08:39:07;;;;;;;;;;;28.10;31.60;;;;;;5092276;28;20392;-64
2021/01/20 08:41:32;;;;;;;;;;;28.10;31.50;;;;;;5090150;28;19916;-65
2021/01/20 08:44:13;;;;;;;;;;;28.10;31.70;;;;;;5093172;28;19908;-64
2021/01/20 08:46:39;;;;;;;;;;;28.10;32.20;;;;;;5091056;28;19912;-57
2021/01/20 08:49:04;;;;;;;;;;;28.00;33.30;;;;;;5093071;28;19930;-56
2021/01/20 08:51:30;;;;;;;;;;;27.90;33.10;;;;;;5092725;28;20331;-61
2021/01/20 08:54:08;;;;;;;;;;;28.00;33.30;;;;;;5074714;28;19917;-64
2021/01/20 08:56:33;;;;;;;;;;;28.00;32.90;;;;;;5092732;28;20413;-66
2021/01/20 08:58:59;;;;;;;;;;;28.10;32.80;;;;;;5092981;28;20003;-66
2021/01/20 09:01:26;;;;;;;;;;;28.10;32.50;;;;;;5091210;28;20313;-65
2021/01/20 09:03:58;;;;;;;;;;;28.10;32.90;;;;;;5092653;28;19994;-63
2021/01/20 09:06:24;;;;;;;;;;;28.10;32.10;;;;;;5092645;28;20294;-54
2021/01/20 09:08:50;;;;;;;;;;;28.00;32.50;;;;;;5092476;28;19927;-57
2021/01/20 09:11:15;;;;;;;;;;;28.00;32.00;;;;;;5092696;28;19919;-48
2021/01/20 09:13:41;;;;;;;;;;;28.00;33.00;;;;;;5074497;28;19908;-53
2021/01/20 09:16:07;;;;;;;;;;;28.10;32.40;;;;;;5079647;28;19919;-56
2021/01/20 09:18:32;;;;;;;;;;;28.20;33.50;;;;;;5073597;28;20015;-56
2021/01/20 09:20:58;;;;;;;;;;;28.30;34.90;;;;;;5072601;28;19940;-58
2021/01/20 09:23:23;;;;;;;;;;;28.30;36.20;;;;;;5072516;28;19908;-54
2021/01/20 09:25:49;;;;;;;;;;;28.30;38.50;;;;;;5072595;28;19970;-68
2021/01/20 09:28:15;;;;;;;;;;;28.30;39.40;;;;;;5072090;28;19917;-65
2021/01/20 09:30:40;;;;;;;;;;;28.30;40.00;;;;;;5072466;28;20392;-71
2021/01/20 09:33:05;;;;;;;;;;;28.30;39.70;;;;;;5076161;28;19919;-65
2021/01/20 09:35:31;;;;;;;;;;;28.20;39.50;;;;;;5092708;28;20415;-67
2021/01/20 09:37:57;;;;;;;;;;;28.30;39.20;;;;;;5095739;28;20353;-64
2021/01/20 09:40:23;;;;;;;;;;;28.20;39.30;;;;;;5096099;28;19908;-69
2021/01/20 09:42:48;;;;;;;;;;;28.20;39.30;;;;;;5095996;28;19972;-66
2021/01/20 09:45:14;;;;;;;;;;;28.20;38.90;;;;;;5096212;28;19908;-71
2021/01/20 09:47:40;;;;;;;;;;;28.20;38.40;;;;;;5093362;28;19931;-74
2021/01/20 09:50:07;;;;;;;;;;;27.90;36.50;;;;;;5075617;28;19920;-71
2021/01/20 09:52:32;;;;;;;;;;;27.90;36.60;;;;;;5075696;28;19940;-72
2021/01/20 09:54:58;;;;;;;;;;;27.90;36.80;;;;;;5075405;28;20278;-70
2021/01/20 09:57:23;;;;;;;;;;;28.00;36.70;;;;;;5089372;28;19993;-69
2021/01/20 09:59:49;;;;;;;;;;;28.20;36.90;;;;;;5095838;28;20346;-67
2021/01/20 10:02:15;;;;;;;;;;;28.30;36.70;;;;;;5095830;28;20010;-66
2021/01/20 10:04:40;;;;;;;;;;;28.30;36.70;;;;;;5095349;28;19916;-70
2021/01/20 10:07:06;;;;;;;;;;;28.40;36.60;;;;;;5095670;28;19912;-62
2021/01/20 10:09:34;;;;;;;;;;;28.30;36.90;;;;;;5095173;28;19935;-70
2021/01/20 10:12:00;;;;;;;;;;;28.30;36.80;;;;;;5082641;28;20020;-65
2021/01/20 10:14:26;;;;;;;;;;;28.30;37.00;;;;;;5075294;28;20331;-71
2021/01/20 10:16:52;;;;;;;;;;;28.40;37.20;;;;;;5075017;28;20443;-71
2021/01/20 10:19:17;;;;;;;;;;;28.50;36.80;;;;;;5075163;28;19932;-68
2021/01/20 10:21:43;;;;;;;;;;;28.50;37.20;;;;;;5074867;28;20354;-64
2021/01/20 10:24:09;;;;;;;;;;;28.50;37.10;;;;;;5074829;28;19908;-67
2021/01/20 10:26:35;;;;;;;;;;;28.60;37.00;;;;;;5085917;28;19920;-69
2021/01/20 10:29:00;;;;;;;;;;;28.60;37.10;;;;;;5094737;28;19935;-67
2021/01/20 10:31:32;;;;;;;;;;;28.60;36.70;;;;;;5094982;28;19916;-67
2021/01/20 10:34:00;;;;;;;;;;;28.60;37.50;;;;;;5095059;28;19908;-69
2021/01/20 10:36:26;;;;;;;;;;;28.60;37.10;;;;;;5094889;28;19912;-64
2021/01/20 10:38:51;;;;;;;;;;;28.60;36.80;;;;;;5095063;28;19919;-69
2021/01/20 10:41:20;;;;;;;;;;;28.70;37.00;;;;;;5083798;28;19960;-71
2021/01/20 10:43:46;;;;;;;;;;;28.60;37.00;;;;;;5074784;28;19912;-68
2021/01/20 10:46:12;;;;;;;;;;;28.60;37.30;;;;;;5074752;28;19916;-68
2021/01/20 10:48:37;;;;;;;;;;;28.60;37.10;;;;;;5074511;28;19908;-65
2021/01/20 10:51:03;;;;;;;;;;;28.50;37.00;;;;;;5074228;28;19912;-68
2021/01/20 10:53:28;;;;;;;;;;;28.50;36.90;;;;;;5074533;28;19909;-64
2021/01/20 10:55:54;;;;;;;;;;;28.50;37.20;;;;;;5082171;28;19912;-67
2021/01/20 10:58:19;;;;;;;;;;;28.40;36.90;;;;;;5094771;28;19908;-66
2021/01/20 11:00:47;;;;;;;;;;;28.50;37.00;;;;;;5088812;28;19943;-64
2021/01/20 11:03:13;;;;;;;;;;;28.50;36.80;;;;;;5074098;28;19916;-64
2021/01/20 11:05:41;;;;;;;;;;;28.60;36.80;;;;;;5074442;28;19915;-64
2021/01/20 11:08:07;;;;;;;;;;;28.60;36.40;;;;;;5074161;28;20270;-55
2021/01/20 11:10:32;;;;;;;;;;;28.60;36.50;;;;;;5074107;28;19927;-57
2021/01/20 11:12:58;;;;;;;;;;;28.60;37.30;;;;;;5073998;28;20354;-58
2021/01/20 11:15:24;;;;;;;;;;;28.60;36.90;;;;;;5078480;28;20014;-58
2021/01/20 11:17:50;;;;;;;;;;;28.60;37.10;;;;;;5081710;28;20000;-62
2021/01/20 11:20:16;;;;;;;;;;;28.70;37.20;;;;;;5074004;28;19935;-65
2021/01/20 11:22:41;;;;;;;;;;;28.60;38.10;;;;;;5074112;28;19947;-63
2021/01/20 11:25:07;;;;;;;;;;;28.60;39.10;;;;;;5074316;28;19908;-66
2021/01/20 11:27:33;;;;;;;;;;;28.70;38.90;;;;;;5073569;28;20381;-66
2021/01/20 11:29:58;;;;;;;;;;;28.60;39.60;;;;;;5073240;28;19956;-63
2021/01/20 11:32:24;;;;;;;;;;;28.70;39.60;;;;;;5092825;28;19912;-63
2021/01/20 11:34:49;;;;;;;;;;;28.80;40.20;;;;;;5093768;28;19916;-65
2021/01/20 11:37:14;;;;;;;;;;;28.80;39.70;;;;;;5093995;28;19912;-65
2021/01/20 11:39:41;;;;;;;;;;;28.80;41.30;;;;;;5093540;28;19915;-67
2021/01/20 11:42:06;;;;;;;;;;;28.80;40.50;;;;;;5093843;28;19912;-68
2021/01/20 11:44:32;;;;;;;;;;;28.80;40.50;;;;;;5093946;28;20045;-59
2021/01/20 11:46:57;;;;;;;;;;;28.70;42.30;;;;;;5092007;28;19965;-60
2021/01/20 11:49:23;;;;;;;;;;;28.70;40.30;;;;;;5093606;28;20377;-59
2021/01/20 11:51:48;;;;;;;;;;;28.70;42.90;;;;;;5076746;28;19923;-59
2021/01/20 11:54:14;;;;;;;;;;;28.70;40.40;;;;;;5073230;28;19918;-64
2021/01/20 11:56:39;;;;;;;;;;;28.70;41.90;;;;;;5073232;28;19909;-61
2021/01/20 11:59:05;;;;;;;;;;;28.70;41.30;;;;;;5074702;28;20198;-59
2021/01/20 12:01:31;;;;;;;;;;;28.70;41.10;;;;;;5081841;28;19934;-62
2021/01/20 12:03:56;;;;;;;;;;;28.70;41.50;;;;;;5073343;28;19995;-64
2021/01/20 12:06:23;;;;;;;;;;;28.80;41.40;;;;;;5073017;28;20015;-66
2021/01/20 12:08:48;;;;;;;;;;;28.80;42.10;;;;;;5073043;28;20433;-64
2021/01/20 12:11:14;;;;;;;;;;;28.80;41.80;;;;;;5086659;28;20004;-63
2021/01/20 12:13:39;;;;;;;;;;;28.80;42.00;;;;;;5093156;28;20323;-61
2021/01/20 12:16:05;;;;;;;;;;;28.80;43.00;;;;;;5093471;28;20015;-64
2021/01/20 12:18:30;;;;;;;;;;;28.80;42.20;;;;;;5092891;28;19908;-67
2021/01/20 12:20:56;;;;;;;;;;;28.80;43.10;;;;;;5093050;28;19953;-71
2021/01/20 12:23:21;;;;;;;;;;;28.80;42.40;;;;;;5093026;28;19908;-69
2021/01/20 12:25:47;;;;;;;;;;;28.90;42.00;;;;;;5091529;28;19912;-65
2021/01/20 12:28:12;;;;;;;;;;;28.90;42.00;;;;;;5093042;28;20353;-66
2021/01/20 12:30:38;;;;;;;;;;;28.90;41.60;;;;;;5092887;28;19916;-65
2021/01/20 12:33:03;;;;;;;;;;;28.90;41.80;;;;;;5093230;28;19920;-67
2021/01/20 12:35:29;;;;;;;;;;;29.00;42.10;;;;;;5093204;28;20285;-64
2021/01/20 12:37:54;;;;;;;;;;;29.00;41.70;;;;;;5092861;28;19908;-65
2021/01/20 12:40:20;;;;;;;;;;;29.00;41.50;;;;;;5082695;28;19912;-60
2021/01/20 12:42:45;;;;;;;;;;;28.70;36.50;;;;;;5072609;28;19913;-62
2021/01/20 12:45:11;;;;;;;;;;;27.50;31.90;;;;;;5072941;28;19956;-62
2021/01/20 12:47:37;;;;;;;;;;;27.40;35.80;;;;;;5072830;28;20355;-62
2021/01/20 12:50:04;;;;;;;;;;;27.70;36.20;;;;;;5090558;28;19920;-62
2021/01/20 12:52:30;;;;;;;;;;;27.90;36.50;;;;;;5092701;28;19943;-62
2021/01/20 12:54:55;;;;;;;;;;;28.20;37.00;;;;;;5092762;28;19951;-62
2021/01/20 12:57:21;;;;;;;;;;;28.30;37.20;;;;;;5093011;28;20350;-68
2021/01/20 12:59:46;;;;;;;;;;;28.50;37.30;;;;;;5092970;28;19990;-67
2021/01/20 13:02:11;;;;;;;;;;;28.60;37.20;;;;;;5092973;28;19912;-67
2021/01/20 13:04:37;;;;;;;;;;;28.60;37.20;;;;;;5075571;28;19912;-60
2021/01/20 13:07:02;;;;;;;;;;;28.60;37.50;;;;;;5072497;28;19938;-61
2021/01/20 13:09:28;;;;;;;;;;;28.60;37.80;;;;;;5072599;28;19923;-59
2021/01/20 13:11:54;;;;;;;;;;;28.70;37.50;;;;;;5081826;28;19912;-58
2021/01/20 13:14:19;;;;;;;;;;;28.70;37.70;;;;;;5096489;28;19923;-64
2021/01/20 13:16:45;;;;;;;;;;;28.70;37.60;;;;;;5096855;28;19924;-61
2021/01/20 13:19:10;;;;;;;;;;;28.60;37.80;;;;;;5096626;28;20307;-70
2021/01/20 13:21:36;;;;;;;;;;;28.70;37.80;;;;;;5096731;28;20418;-62
2021/01/20 13:24:01;;;;;;;;;;;28.70;37.80;;;;;;5096248;28;19908;-62
2021/01/20 13:26:27;;;;;;;;;;;28.70;37.50;;;;;;5091184;28;19912;-64
2021/01/20 13:28:52;;;;;;;;;;;28.70;37.60;;;;;;5096190;28;19920;-62
2021/01/20 13:31:18;;;;;;;;;;;28.70;37.60;;;;;;5096380;28;20369;-64
2021/01/20 13:33:43;;;;;;;;;;;28.70;37.50;;;;;;5096168;28;19954;-63
2021/01/20 13:36:10;;;;;;;;;;;28.70;37.50;;;;;;5096217;28;19915;-63
2021/01/20 13:38:35;;;;;;;;;;;28.70;37.40;;;;;;5096235;28;19923;-63
2021/01/20 13:41:01;;;;;;;;;;;28.70;37.30;;;;;;5095872;28;19998;-64
2021/01/20 13:43:26;;;;;;;;;;;28.80;37.30;;;;;;5076160;28;20030;-62
2021/01/20 13:45:52;;;;;;;;;;;28.80;37.10;;;;;;5075674;28;19916;-61
2021/01/20 13:48:17;;;;;;;;;;;28.70;37.10;;;;;;5075835;28;20021;-63
2021/01/20 13:50:43;;;;;;;;;;;28.70;37.00;;;;;;5075736;28;20408;-63
2021/01/20 13:53:08;;;;;;;;;;;28.70;37.10;;;;;;5075476;28;19999;-62
2021/01/20 13:55:34;;;;;;;;;;;28.70;37.10;;;;;;5075448;28;20003;-63
2021/01/20 13:57:59;;;;;;;;;;;28.70;37.00;;;;;;5076701;28;19974;-63
2021/01/20 14:00:25;;;;;;;;;;;28.70;36.80;;;;;;5075471;28;19917;-62
2021/01/20 14:02:50;;;;;;;;;;;28.70;36.70;;;;;;5075540;28;19913;-66
2021/01/20 14:05:16;;;;;;;;;;;28.70;36.90;;;;;;5084893;28;19969;-63
2021/01/20 14:07:41;;;;;;;;;;;28.70;36.70;;;;;;5095745;28;19908;-69
2021/01/20 14:10:07;;;;;;;;;;;28.70;36.50;;;;;;5093807;28;20023;-71
2021/01/20 14:12:32;;;;;;;;;;;28.70;36.60;;;;;;5095569;28;19908;-70